Fernley, NV (89408)

7:30 AM PDT on July 30, 2016 (GMT -0700)
CW2857-SageValley-Fernley,NV-4261' Elev | | Change Station

Elev 4261 ft 39.60 °N, 119.23 °W | Updated 10 minutes ago

Mostly Cloudy
Mostly Cloudy
78.6 °F
Feels Like 78 °F
N
4.0
Wind Variable Wind from NNW
Gusts 14.0 mph

Today
High -- | Low -- °F
--% Chance of Precip.
Yesterday
High -- | Low -- °F
Precip. -- in
Pressure 29.84 in
Visibility 10.0 miles
Clouds Scattered Clouds 11000 ft
Mostly Cloudy 20000 ft
Heat Index 78 °F
Dew Point 40 °F
Humidity 25%
Rainfall 0.00 in
Snow Depth Not available.
5:55 AM 8:11 PM
Waning Crescent, 13% visible
METAR KRNO 301355Z 00000KT 10SM SCT110 BKN200 22/07 A3004 RMK AO2 SLP103 FU SCT110 HZ ALQDS T02220067
Pressure 29.84 in
Visibility 10.0 miles
Clouds Scattered Clouds 11000 ft
Mostly Cloudy 20000 ft
Heat Index 78 °F
Dew Point 40 °F
Humidity 25%
Rainfall 0.00 in
Snow Depth Not available.
5:55 AM 8:11 PM
Waning Crescent, 13% visible
METAR KRNO 301355Z 00000KT 10SM SCT110 BKN200 22/07 A3004 RMK AO2 SLP103 FU SCT110 HZ ALQDS T02220067

10-Day Weather Forecast

Almanac

Astronomy

Jul. 30, 2016 Rise Set
Actual Time
Civil Twilight
Nautical Twilight
Astronomical Twilight
Moon
Length of Visible Light
Length of Day
Tomorrow will be .
, % of the Moon is Illuminated

Today's Extremes

State Highs State Lows

Community

WunderPhotos

Upload Photos

1,928,565 photos uploaded!

WunderBlog® & News

Nearby

Air Quality

  Air Quality AQ Index Pollutant
Not available.

Snow Depth

Station Depth Elevation

Earthquake Activity

City Distance Mag. Time & Date
Minimum magnitude displayed is 2.5.

Coastal Water Temperatures

Place Temperature

Stations

Nearby Weather Stations

Station Location Temp. Windchill Dew Point Humidity Wind Precip. Elev Updated Type
                   

Watches & Warnings

There are currently no watches in effect.